createdAt,value
2022-12-01T00:01:43.137Z,3.08
2022-12-01T00:04:11.989Z,3.07
2022-12-01T00:06:39.945Z,3.06
2022-12-01T00:09:29.635Z,3.04
2022-12-01T00:11:57.616Z,3.03
2022-12-01T00:14:26.945Z,3.02
2022-12-01T00:16:55.009Z,3.02
2022-12-01T00:19:28.803Z,3.02
2022-12-01T00:21:58.809Z,3.01
2022-12-01T00:24:27.966Z,3.00
2022-12-01T00:26:55.687Z,2.98
2022-12-01T00:29:24.071Z,2.97
2022-12-01T00:31:51.853Z,2.96
2022-12-01T00:34:25.707Z,2.95
2022-12-01T00:36:53.752Z,2.93
2022-12-01T00:39:21.509Z,2.91
2022-12-01T00:41:52.038Z,2.90
2022-12-01T00:44:21.241Z,2.89
2022-12-01T00:46:50.647Z,2.87
2022-12-01T00:49:18.627Z,2.87
2022-12-01T00:51:46.377Z,2.86
2022-12-01T00:54:14.393Z,2.85
2022-12-01T00:56:43.410Z,2.84
2022-12-01T00:59:12.975Z,2.83
2022-12-01T01:01:40.985Z,2.82
2022-12-01T01:04:09.704Z,2.81
2022-12-01T01:06:37.734Z,2.80
2022-12-01T01:09:05.880Z,2.78
2022-12-01T01:11:33.644Z,2.77
2022-12-01T01:14:01.467Z,2.76
2022-12-01T01:16:31.145Z,2.75
2022-12-01T01:19:00.578Z,2.75
2022-12-01T01:21:31.004Z,2.74
2022-12-01T01:23:58.999Z,2.74
2022-12-01T01:26:32.718Z,2.74
2022-12-01T01:29:04.174Z,2.72
2022-12-01T01:31:33.375Z,2.70
2022-12-01T01:34:04.773Z,2.69
2022-12-01T01:36:33.872Z,2.68
2022-12-01T01:39:03.308Z,2.65
2022-12-01T01:41:32.231Z,2.63
2022-12-01T01:44:03.185Z,2.61
2022-12-01T01:46:34.184Z,2.59
2022-12-01T01:49:11.265Z,2.56
2022-12-01T01:51:46.261Z,2.54
2022-12-01T01:54:31.558Z,2.51
2022-12-01T01:57:02.776Z,2.49
2022-12-01T01:59:40.291Z,2.47
2022-12-01T02:02:12.854Z,2.46
2022-12-01T02:04:55.109Z,2.44
2022-12-01T02:07:23.105Z,2.44
2022-12-01T02:09:55.328Z,2.43
2022-12-01T02:12:54.971Z,2.42
2022-12-01T02:15:35.128Z,2.38
2022-12-01T02:18:31.484Z,2.38
2022-12-01T02:21:22.508Z,2.39
2022-12-01T02:24:20.774Z,2.39
2022-12-01T02:26:57.386Z,2.40
2022-12-01T02:29:43.887Z,2.40
2022-12-01T02:32:44.135Z,2.38
2022-12-01T02:35:26.388Z,2.38
2022-12-01T02:38:24.807Z,2.39
2022-12-01T02:41:16.051Z,2.38
2022-12-01T02:44:14.146Z,2.37
2022-12-01T02:46:47.632Z,2.37
2022-12-01T02:49:24.211Z,2.36
2022-12-01T02:51:55.429Z,2.35
2022-12-01T02:54:25.658Z,2.34
2022-12-01T02:56:55.079Z,2.32
2022-12-01T02:59:24.285Z,2.33
2022-12-01T03:02:09.660Z,2.33
2022-12-01T03:05:14.620Z,2.34
2022-12-01T03:07:59.020Z,2.35
2022-12-01T03:10:54.715Z,2.36
2022-12-01T03:13:33.023Z,2.36
2022-12-01T03:16:19.022Z,2.37
2022-12-01T03:19:10.409Z,2.37
2022-12-01T03:22:04.032Z,2.36
2022-12-01T03:24:36.742Z,2.35
2022-12-01T03:27:09.831Z,2.34
2022-12-01T03:29:43.656Z,2.32
2022-12-01T03:32:25.573Z,2.32
2022-12-01T03:34:59.471Z,2.31
2022-12-01T03:37:39.624Z,2.31
2022-12-01T03:40:13.417Z,2.30
2022-12-01T03:42:59.428Z,2.30
2022-12-01T03:45:50.988Z,2.29
2022-12-01T03:48:21.904Z,2.29
2022-12-01T03:51:04.358Z,2.28
2022-12-01T03:54:04.079Z,2.28
2022-12-01T03:56:43.427Z,2.28
2022-12-01T03:59:14.818Z,2.28
2022-12-01T04:01:44.235Z,2.25
2022-12-01T04:04:15.447Z,2.25
2022-12-01T04:06:47.347Z,2.25
2022-12-01T04:09:15.119Z,2.25
2022-12-01T04:12:01.696Z,2.25
2022-12-01T04:14:31.636Z,2.24
2022-12-01T04:16:59.583Z,2.22
2022-12-01T04:19:27.347Z,2.22
2022-12-01T04:21:55.305Z,2.22
2022-12-01T04:24:23.083Z,2.22
2022-12-01T04:26:51.048Z,2.19
2022-12-01T04:29:18.907Z,2.19
2022-12-01T04:31:46.715Z,2.19
2022-12-01T04:34:15.848Z,2.18
2022-12-01T04:36:43.620Z,2.18
2022-12-01T04:39:11.548Z,2.17
2022-12-01T04:41:40.869Z,2.17
2022-12-01T04:44:11.499Z,2.16
2022-12-01T04:46:40.605Z,2.16
2022-12-01T04:49:10.943Z,2.14
2022-12-01T04:51:38.899Z,2.14
2022-12-01T04:54:06.920Z,2.13
2022-12-01T04:56:34.978Z,2.12
2022-12-01T04:59:03.698Z,2.12
2022-12-01T05:01:33.175Z,2.11
2022-12-01T05:04:02.750Z,2.10
2022-12-01T05:06:32.552Z,2.09
2022-12-01T05:09:02.687Z,2.09
2022-12-01T05:11:32.845Z,2.09
2022-12-01T05:14:00.943Z,2.09
2022-12-01T05:16:33.359Z,2.09
2022-12-01T05:19:24.914Z,2.10
2022-12-01T05:21:55.522Z,2.10
2022-12-01T05:24:23.589Z,2.10
2022-12-01T05:26:52.663Z,2.11
2022-12-01T05:29:20.436Z,2.12
2022-12-01T05:31:50.432Z,2.12
2022-12-01T05:34:19.679Z,2.10
2022-12-01T05:36:47.405Z,2.08
2022-12-01T05:39:15.307Z,2.07
2022-12-01T05:41:43.302Z,2.07
2022-12-01T05:44:11.030Z,2.08
2022-12-01T05:46:38.763Z,2.08
2022-12-01T05:49:06.562Z,2.09
2022-12-01T05:51:34.373Z,2.09
2022-12-01T05:54:03.664Z,2.08
2022-12-01T05:56:31.455Z,2.07
2022-12-01T05:59:00.573Z,2.07
2022-12-01T06:01:28.318Z,2.08
2022-12-01T06:03:56.260Z,2.09
2022-12-01T06:06:25.625Z,2.10
2022-12-01T06:08:53.421Z,2.09
2022-12-01T06:11:21.397Z,2.11
2022-12-01T06:13:49.197Z,2.10
2022-12-01T06:16:16.998Z,2.10
2022-12-01T06:18:44.794Z,2.09
2022-12-01T06:21:13.431Z,2.08
2022-12-01T06:23:41.241Z,2.07
2022-12-01T06:26:09.014Z,2.07
2022-12-01T06:28:36.756Z,2.06
2022-12-01T06:31:04.659Z,2.07
2022-12-01T06:33:33.771Z,2.07
2022-12-01T06:36:05.152Z,2.07
2022-12-01T06:38:37.196Z,2.07
2022-12-01T06:41:06.047Z,2.08
2022-12-01T06:43:39.484Z,2.08
2022-12-01T06:46:08.758Z,2.08
2022-12-01T06:48:37.004Z,2.09
2022-12-01T06:51:05.119Z,2.11
2022-12-01T06:53:34.218Z,2.13
2022-12-01T06:56:05.106Z,2.13
2022-12-01T06:58:36.095Z,2.13
2022-12-01T07:01:13.635Z,2.14
2022-12-01T07:03:41.706Z,2.14
2022-12-01T07:06:11.080Z,2.16
2022-12-01T07:08:40.694Z,2.19
2022-12-01T07:11:13.325Z,2.21
2022-12-01T07:13:45.486Z,2.22
2022-12-01T07:16:13.423Z,2.23
2022-12-01T07:18:46.465Z,2.22
2022-12-01T07:21:16.305Z,2.21
2022-12-01T07:23:44.335Z,2.21
2022-12-01T07:26:16.515Z,2.22
2022-12-01T07:28:45.751Z,2.22
2022-12-01T07:31:20.838Z,2.23
2022-12-01T07:33:48.919Z,2.24
2022-12-01T07:36:16.733Z,2.27
2022-12-01T07:38:44.516Z,2.29
2022-12-01T07:41:15.973Z,2.28
2022-12-01T07:43:45.872Z,2.24
2022-12-01T07:46:23.256Z,2.22
2022-12-01T07:48:55.273Z,2.24
2022-12-01T07:51:25.677Z,2.25
2022-12-01T07:53:55.255Z,2.27
2022-12-01T07:56:25.364Z,2.28
2022-12-01T07:58:53.132Z,2.29
2022-12-01T08:01:26.121Z,2.29
2022-12-01T08:03:57.303Z,2.29
2022-12-01T08:06:27.181Z,2.30
2022-12-01T08:08:56.153Z,2.29
2022-12-01T08:11:26.625Z,2.29
2022-12-01T08:13:54.488Z,2.28
2022-12-01T08:16:25.920Z,2.27
2022-12-01T08:18:55.220Z,2.26
2022-12-01T08:21:24.156Z,2.27
2022-12-01T08:23:55.378Z,2.29
2022-12-01T08:26:25.763Z,2.30
2022-12-01T08:28:53.667Z,2.31
2022-12-01T08:31:37.152Z,2.34
2022-12-01T08:34:07.446Z,2.37
2022-12-01T08:36:37.288Z,2.39
2022-12-01T08:39:08.602Z,2.39
2022-12-01T08:41:36.588Z,2.38
2022-12-01T08:44:04.671Z,2.39
2022-12-01T08:46:34.648Z,2.40
2022-12-01T08:49:05.791Z,2.39
2022-12-01T08:51:36.412Z,2.39
2022-12-01T08:54:06.247Z,2.40
2022-12-01T08:56:38.639Z,2.41
2022-12-01T08:59:09.785Z,2.42
2022-12-01T09:01:53.122Z,2.43
2022-12-01T09:04:26.667Z,2.44
2022-12-01T09:06:56.623Z,2.45
2022-12-01T09:09:28.655Z,2.46
2022-12-01T09:11:56.697Z,2.48
2022-12-01T09:14:25.852Z,2.49
2022-12-01T09:16:55.093Z,2.51
2022-12-01T09:19:25.315Z,2.53
2022-12-01T09:21:54.538Z,2.56
2022-12-01T09:24:22.581Z,2.58
2022-12-01T09:26:56.556Z,2.59
2022-12-01T09:29:26.040Z,2.61
2022-12-01T09:31:58.066Z,2.61
2022-12-01T09:34:28.006Z,2.62
2022-12-01T09:36:58.805Z,2.63
2022-12-01T09:39:28.189Z,2.63
2022-12-01T09:42:07.447Z,2.60
2022-12-01T09:44:47.714Z,2.59
2022-12-01T09:47:29.750Z,2.61
2022-12-01T09:50:21.983Z,2.63
2022-12-01T09:53:05.243Z,2.63
2022-12-01T09:55:35.883Z,2.63
2022-12-01T09:58:14.004Z,2.62
2022-12-01T10:00:44.740Z,2.63
2022-12-01T10:03:29.646Z,2.63
2022-12-01T10:06:26.871Z,2.63
2022-12-01T10:09:27.206Z,2.62
2022-12-01T10:12:04.559Z,2.60
2022-12-01T10:14:36.372Z,2.58
2022-12-01T10:17:06.804Z,2.59
2022-12-01T10:19:59.783Z,2.61
2022-12-01T10:22:56.739Z,2.62
2022-12-01T10:25:29.827Z,2.61
2022-12-01T10:28:29.711Z,2.61
2022-12-01T10:31:18.245Z,2.62
2022-12-01T10:34:03.736Z,2.62
2022-12-01T10:36:34.772Z,2.64
2022-12-01T10:39:06.972Z,2.65
2022-12-01T10:41:39.077Z,2.66
2022-12-01T10:44:08.867Z,2.66
2022-12-01T10:46:55.224Z,2.66
2022-12-01T10:49:39.229Z,2.68
2022-12-01T10:52:28.834Z,2.68
2022-12-01T10:54:56.840Z,2.69
2022-12-01T10:57:29.081Z,2.70
2022-12-01T11:00:02.510Z,2.70
2022-12-01T11:02:33.362Z,2.69
2022-12-01T11:05:09.294Z,2.67
2022-12-01T11:07:48.470Z,2.66
2022-12-01T11:10:36.030Z,2.64
2022-12-01T11:13:23.992Z,2.63
2022-12-01T11:15:55.807Z,2.64
2022-12-01T11:18:24.768Z,2.64
2022-12-01T11:21:26.886Z,2.64
2022-12-01T11:23:58.188Z,2.64
2022-12-01T11:26:34.473Z,2.66
2022-12-01T11:29:23.662Z,2.65
2022-12-01T11:31:54.598Z,2.65
2022-12-01T11:34:28.602Z,2.67
2022-12-01T11:37:01.547Z,2.66
2022-12-01T11:39:40.817Z,2.66
2022-12-01T11:42:11.843Z,2.63
2022-12-01T11:44:52.269Z,2.64
2022-12-01T11:47:28.011Z,2.66
2022-12-01T11:50:02.202Z,2.67
2022-12-01T11:52:34.553Z,2.67
2022-12-01T11:55:22.576Z,2.70
2022-12-01T11:57:54.825Z,2.69
2022-12-01T12:00:30.397Z,2.70
2022-12-01T12:03:21.709Z,2.70
2022-12-01T12:06:39.418Z,2.70
2022-12-01T12:09:28.014Z,2.68
2022-12-01T12:12:28.661Z,2.70
2022-12-01T12:15:02.446Z,2.69
2022-12-01T12:17:57.972Z,2.69
2022-12-01T12:20:53.996Z,2.68
2022-12-01T12:23:46.463Z,2.67
2022-12-01T12:26:40.939Z,2.66
2022-12-01T12:30:03.390Z,2.64
2022-12-01T12:32:38.587Z,2.60
2022-12-01T12:35:30.816Z,2.59
2022-12-01T12:38:09.137Z,2.59
2022-12-01T12:40:59.009Z,2.58
2022-12-01T12:43:35.884Z,2.59
2022-12-01T12:46:27.310Z,2.60
2022-12-01T12:49:22.045Z,2.60
2022-12-01T12:51:59.949Z,2.60
2022-12-01T12:54:43.197Z,2.60
2022-12-01T12:57:24.329Z,2.59
2022-12-01T12:59:59.130Z,2.56
2022-12-01T13:02:28.587Z,2.54
2022-12-01T13:05:16.423Z,2.52
2022-12-01T13:08:16.679Z,2.51
2022-12-01T13:11:03.947Z,2.50
2022-12-01T13:13:57.558Z,2.47
2022-12-01T13:16:38.164Z,2.46
2022-12-01T13:19:16.483Z,2.46
2022-12-01T13:21:48.353Z,2.46
2022-12-01T13:24:23.289Z,2.46
2022-12-01T13:27:13.604Z,2.45
2022-12-01T13:29:47.868Z,2.44
2022-12-01T13:32:44.371Z,2.44
2022-12-01T13:35:37.163Z,2.42
2022-12-01T13:38:18.464Z,2.41
2022-12-01T13:40:48.275Z,2.41
2022-12-01T13:43:22.098Z,2.41
2022-12-01T13:45:51.509Z,2.41
2022-12-01T13:48:48.789Z,2.42
2022-12-01T13:51:17.913Z,2.40
2022-12-01T13:54:23.416Z,2.39
2022-12-01T13:57:04.192Z,2.38
2022-12-01T14:00:00.269Z,2.38
2022-12-01T14:02:31.905Z,2.36
2022-12-01T14:05:24.918Z,2.34
2022-12-01T14:07:54.995Z,2.31
2022-12-01T14:10:28.639Z,2.28
2022-12-01T14:12:58.492Z,2.27
2022-12-01T14:15:43.816Z,2.25
2022-12-01T14:18:35.458Z,2.24
2022-12-01T14:21:07.680Z,2.22
2022-12-01T14:23:40.008Z,2.19
2022-12-01T14:26:19.904Z,2.17
2022-12-01T14:29:01.046Z,2.15
2022-12-01T14:31:35.073Z,2.14
2022-12-01T14:34:19.352Z,2.13
2022-12-01T14:37:08.245Z,2.11
2022-12-01T14:39:45.062Z,2.11
2022-12-01T14:42:49.904Z,2.10
2022-12-01T14:45:28.931Z,2.09
2022-12-01T14:48:09.413Z,2.10
2022-12-01T14:50:46.581Z,2.10
2022-12-01T14:53:25.993Z,2.09
2022-12-01T14:56:15.638Z,2.08
2022-12-01T14:58:56.901Z,2.07
2022-12-01T15:01:35.045Z,2.07
2022-12-01T15:04:06.320Z,2.06
2022-12-01T15:06:37.726Z,2.05
2022-12-01T15:09:32.772Z,2.01
2022-12-01T15:12:03.760Z,1.97
2022-12-01T15:14:36.683Z,1.96
2022-12-01T15:17:09.052Z,1.95
2022-12-01T15:19:41.430Z,1.92
2022-12-01T15:22:18.001Z,1.91
2022-12-01T15:24:47.669Z,1.92
2022-12-01T15:27:31.073Z,1.91
2022-12-01T15:30:05.116Z,1.88
2022-12-01T15:32:38.384Z,1.88
2022-12-01T15:35:18.531Z,1.87
2022-12-01T15:37:52.794Z,1.84
2022-12-01T15:43:19.934Z,1.81
2022-12-01T15:46:00.491Z,1.80
2022-12-01T15:48:35.672Z,1.80
2022-12-01T15:51:27.074Z,1.80
2022-12-01T15:54:05.665Z,1.79
2022-12-01T15:56:40.567Z,1.77
2022-12-01T15:59:14.271Z,1.75
2022-12-01T16:01:45.169Z,1.74
2022-12-01T16:04:21.179Z,1.71
2022-12-01T16:07:04.099Z,1.69
2022-12-01T16:09:37.466Z,1.69
2022-12-01T16:12:32.264Z,1.67
2022-12-01T16:15:00.221Z,1.66
2022-12-01T16:17:52.774Z,1.63
2022-12-01T16:20:33.043Z,1.62
2022-12-01T16:23:05.504Z,1.63
2022-12-01T16:25:44.299Z,1.62
2022-12-01T16:28:24.943Z,1.60
2022-12-01T16:30:55.023Z,1.59
2022-12-01T16:33:25.591Z,1.60
2022-12-01T16:35:54.431Z,1.60
2022-12-01T16:38:30.249Z,1.60
2022-12-01T16:41:02.721Z,1.60
2022-12-01T16:43:30.597Z,1.60
2022-12-01T16:46:03.168Z,1.61
2022-12-01T16:48:35.020Z,1.61
2022-12-01T16:51:05.101Z,1.61
2022-12-01T16:53:32.869Z,1.62
2022-12-01T16:56:03.518Z,1.62
2022-12-01T16:58:31.501Z,1.60
2022-12-01T17:00:59.940Z,1.61
2022-12-01T17:03:29.739Z,1.60
2022-12-01T17:06:01.770Z,1.60
2022-12-01T17:08:29.727Z,1.60
2022-12-01T17:10:57.459Z,1.60
2022-12-01T17:13:25.299Z,1.59
2022-12-01T17:15:55.924Z,1.60
2022-12-01T17:18:25.431Z,1.60
2022-12-01T17:21:05.686Z,1.60
2022-12-01T17:23:39.235Z,1.60
2022-12-01T17:26:14.487Z,1.60
2022-12-01T17:28:42.297Z,1.62
2022-12-01T17:31:12.061Z,1.62
2022-12-01T17:33:41.681Z,1.60
2022-12-01T17:36:14.819Z,1.57
2022-12-01T17:38:45.950Z,1.56
2022-12-01T17:41:18.179Z,1.56
2022-12-01T17:43:46.026Z,1.55
2022-12-01T17:46:14.069Z,1.55
2022-12-01T17:48:45.315Z,1.55
2022-12-01T17:51:15.397Z,1.56
2022-12-01T17:53:44.065Z,1.55
2022-12-01T17:56:15.704Z,1.54
2022-12-01T17:58:45.199Z,1.55
2022-12-01T18:01:19.152Z,1.55
2022-12-01T18:03:48.365Z,1.56
2022-12-01T18:06:19.889Z,1.56
2022-12-01T18:08:47.816Z,1.57
2022-12-01T18:11:17.479Z,1.58
2022-12-01T18:13:49.438Z,1.60
2022-12-01T18:16:22.081Z,1.59
2022-12-01T18:18:50.370Z,1.59
2022-12-01T18:21:22.932Z,1.58
2022-12-01T18:23:58.562Z,1.56
2022-12-01T18:26:29.119Z,1.54
2022-12-01T18:29:01.280Z,1.54
2022-12-01T18:31:31.109Z,1.55
2022-12-01T18:34:05.161Z,1.54
2022-12-01T18:36:36.677Z,1.52
2022-12-01T18:39:08.497Z,1.52
2022-12-01T18:41:36.480Z,1.51
2022-12-01T18:44:07.767Z,1.50
2022-12-01T18:46:37.773Z,1.50
2022-12-01T18:49:09.704Z,1.49
2022-12-01T18:51:39.845Z,1.49
2022-12-01T18:54:11.935Z,1.48
2022-12-01T18:56:39.846Z,1.49
2022-12-01T18:59:10.451Z,1.49
2022-12-01T19:01:43.958Z,1.48
2022-12-01T19:04:15.042Z,1.47
2022-12-01T19:06:46.100Z,1.47
2022-12-01T19:09:16.291Z,1.47
2022-12-01T19:11:46.478Z,1.47
2022-12-01T19:14:18.369Z,1.47
2022-12-01T19:16:47.572Z,1.46
2022-12-01T19:19:15.461Z,1.45
2022-12-01T19:21:46.979Z,1.44
2022-12-01T19:24:14.733Z,1.42
2022-12-01T19:26:44.668Z,1.41
2022-12-01T19:29:12.480Z,1.41
2022-12-01T19:31:42.372Z,1.41
2022-12-01T19:34:10.196Z,1.41
2022-12-01T19:36:37.959Z,1.41
2022-12-01T19:39:07.719Z,1.42
2022-12-01T19:41:39.146Z,1.43
2022-12-01T19:44:08.917Z,1.43
2022-12-01T19:46:36.708Z,1.43
2022-12-01T19:49:07.121Z,1.44
2022-12-01T19:51:38.271Z,1.44
2022-12-01T19:54:12.955Z,1.45
2022-12-01T19:56:40.891Z,1.44
2022-12-01T19:59:11.657Z,1.44
2022-12-01T20:01:40.978Z,1.44
2022-12-01T20:04:09.230Z,1.43
2022-12-01T20:06:39.211Z,1.41
2022-12-01T20:09:09.531Z,1.39
2022-12-01T20:11:40.189Z,1.37
2022-12-01T20:14:09.427Z,1.35
2022-12-01T20:16:37.316Z,1.32
2022-12-01T20:19:07.525Z,1.31
2022-12-01T20:21:45.019Z,1.30
2022-12-01T20:24:15.312Z,1.29
2022-12-01T20:26:57.592Z,1.29
2022-12-01T20:29:31.517Z,1.29
2022-12-01T20:32:03.139Z,1.30
2022-12-01T20:34:35.121Z,1.30
2022-12-01T20:37:04.806Z,1.31
2022-12-01T20:39:36.454Z,1.32
2022-12-01T20:42:06.836Z,1.33
2022-12-01T20:44:37.319Z,1.34
2022-12-01T20:47:05.094Z,1.33
2022-12-01T20:49:32.912Z,1.34
2022-12-01T20:52:00.645Z,1.33
2022-12-01T20:54:29.724Z,1.30
2022-12-01T20:57:00.551Z,1.25
2022-12-01T20:59:30.491Z,1.22
2022-12-01T21:01:58.336Z,1.22
2022-12-01T21:04:26.175Z,1.22
2022-12-01T21:06:58.528Z,1.22
2022-12-01T21:09:26.462Z,1.22
2022-12-01T21:12:20.738Z,1.22
2022-12-01T21:15:03.415Z,1.23
2022-12-01T21:17:44.119Z,1.23
2022-12-01T21:20:41.836Z,1.24
2022-12-01T21:23:16.677Z,1.23
2022-12-01T21:25:46.687Z,1.24
2022-12-01T21:28:27.404Z,1.24
2022-12-01T21:31:15.437Z,1.24
2022-12-01T21:33:45.687Z,1.22
2022-12-01T21:36:20.188Z,1.17
2022-12-01T21:38:56.918Z,1.13
2022-12-01T21:41:29.715Z,1.08
2022-12-01T21:44:09.709Z,1.04
2022-12-01T21:46:43.040Z,1.01
2022-12-01T21:49:37.176Z,0.99
2022-12-01T21:52:19.830Z,0.98
2022-12-01T21:54:50.176Z,0.96
2022-12-01T21:57:43.003Z,0.95
2022-12-01T22:00:36.629Z,0.95
2022-12-01T22:03:44.442Z,0.93
2022-12-01T22:06:30.555Z,0.91
2022-12-01T22:09:31.772Z,0.90
2022-12-01T22:12:18.499Z,0.90
2022-12-01T22:14:46.309Z,0.91
2022-12-01T22:17:21.345Z,0.92
2022-12-01T22:19:57.812Z,0.93
2022-12-01T22:22:29.290Z,0.93
2022-12-01T22:25:21.067Z,0.93
2022-12-01T22:27:48.817Z,0.93
2022-12-01T22:30:23.830Z,0.94
2022-12-01T22:33:05.457Z,0.94
2022-12-01T22:35:46.319Z,0.94
2022-12-01T22:38:37.681Z,0.93
2022-12-01T22:41:15.912Z,0.91
2022-12-01T22:44:01.534Z,0.90
2022-12-01T22:46:34.263Z,0.89
2022-12-01T22:49:20.246Z,0.89
2022-12-01T22:52:06.265Z,0.88
2022-12-01T22:54:51.913Z,0.88
2022-12-01T22:57:29.087Z,0.87
2022-12-01T23:00:03.590Z,0.87
2022-12-01T23:02:36.696Z,0.86
2022-12-01T23:05:28.467Z,0.85
2022-12-01T23:07:58.954Z,0.84
2022-12-01T23:10:34.218Z,0.82
2022-12-01T23:13:23.001Z,0.79
2022-12-01T23:15:56.245Z,0.78
2022-12-01T23:18:33.609Z,0.78
2022-12-01T23:21:04.221Z,0.77
2022-12-01T23:23:36.140Z,0.76
2022-12-01T23:26:14.350Z,0.73
2022-12-01T23:28:44.595Z,0.70
2022-12-01T23:31:12.606Z,0.68
2022-12-01T23:33:41.925Z,0.67
2022-12-01T23:36:24.910Z,0.65
2022-12-01T23:38:56.951Z,0.64
2022-12-01T23:41:51.671Z,0.63
2022-12-01T23:44:49.507Z,0.57
2022-12-01T23:47:27.715Z,0.55
2022-12-01T23:50:03.262Z,0.52
2022-12-01T23:52:36.725Z,0.50
2022-12-01T23:55:18.647Z,0.47
2022-12-01T23:57:46.426Z,0.46
